createdAt,value
2023-03-25T00:00:23.068Z,9.50
2023-03-25T00:02:52.610Z,9.50
2023-03-25T00:05:21.566Z,9.48
2023-03-25T00:07:51.764Z,9.48
2023-03-25T00:10:19.015Z,9.46
2023-03-25T00:12:45.559Z,9.45
2023-03-25T00:15:17.933Z,9.44
2023-03-25T00:17:44.817Z,9.44
2023-03-25T00:20:12.004Z,9.41
2023-03-25T00:22:44.641Z,9.40
2023-03-25T00:25:19.043Z,9.40
2023-03-25T00:27:47.158Z,9.39
2023-03-25T00:30:15.781Z,9.39
2023-03-25T00:32:46.278Z,9.37
2023-03-25T00:35:19.772Z,9.37
2023-03-25T00:37:57.326Z,9.35
2023-03-25T00:40:24.381Z,9.34
2023-03-25T00:42:50.909Z,9.34
2023-03-25T00:45:22.924Z,9.34
2023-03-25T00:47:49.556Z,9.34
2023-03-25T00:50:16.123Z,9.33
2023-03-25T00:52:42.673Z,9.33
2023-03-25T00:55:14.924Z,9.33
2023-03-25T00:57:41.391Z,9.33
2023-03-25T01:00:11.313Z,9.33
2023-03-25T01:02:41.868Z,9.33
2023-03-25T01:05:10.451Z,9.31
2023-03-25T01:07:41.899Z,9.32
2023-03-25T01:10:09.937Z,9.32
2023-03-25T01:12:36.567Z,9.32
2023-03-25T01:15:07.182Z,9.29
2023-03-25T01:17:33.705Z,9.30
2023-03-25T01:20:00.242Z,9.29
2023-03-25T01:22:26.791Z,9.29
2023-03-25T01:24:56.368Z,9.30
2023-03-25T01:27:24.628Z,9.31
2023-03-25T01:29:51.480Z,9.30
2023-03-25T01:32:17.890Z,9.30
2023-03-25T01:34:48.488Z,9.28
2023-03-25T01:37:15.261Z,9.26
2023-03-25T01:39:42.021Z,9.26
2023-03-25T01:42:11.860Z,9.23
2023-03-25T01:44:49.378Z,9.22
2023-03-25T01:47:16.180Z,9.20
2023-03-25T01:49:45.901Z,9.17
2023-03-25T01:52:21.316Z,9.11
2023-03-25T01:54:53.807Z,9.08
2023-03-25T01:57:23.438Z,9.05
2023-03-25T01:59:51.526Z,9.04
2023-03-25T02:02:19.279Z,9.00
2023-03-25T02:05:29.256Z,8.96
2023-03-25T02:07:57.930Z,8.91
2023-03-25T02:10:24.428Z,8.88
2023-03-25T02:12:50.997Z,8.87
2023-03-25T02:15:41.262Z,8.84
2023-03-25T02:18:23.081Z,8.83
2023-03-25T02:21:04.764Z,8.84
2023-03-25T02:23:48.098Z,8.82
2023-03-25T02:26:29.782Z,8.79
2023-03-25T02:29:29.547Z,8.72
2023-03-25T02:32:26.668Z,8.63
2023-03-25T02:35:27.638Z,8.56
2023-03-25T02:37:58.410Z,8.50
2023-03-25T02:40:36.840Z,8.47
2023-03-25T02:43:14.984Z,8.45
2023-03-25T02:46:02.242Z,8.44
2023-03-25T02:48:38.322Z,8.43
2023-03-25T02:51:12.438Z,8.44
2023-03-25T02:53:44.866Z,8.44
2023-03-25T02:56:16.972Z,8.46
2023-03-25T02:58:46.855Z,8.49
2023-03-25T03:01:15.024Z,8.53
2023-03-25T03:03:41.820Z,8.54
2023-03-25T03:06:25.071Z,8.56
2023-03-25T03:08:51.411Z,8.58
2023-03-25T03:11:24.448Z,8.58
2023-03-25T03:14:22.975Z,8.60
2023-03-25T03:17:13.024Z,8.63
2023-03-25T03:19:49.478Z,8.61
2023-03-25T03:22:52.787Z,8.62
2023-03-25T03:26:04.580Z,8.65
2023-03-25T03:28:58.036Z,8.66
2023-03-25T03:31:59.807Z,8.64
2023-03-25T03:34:55.050Z,8.63
2023-03-25T03:37:28.455Z,8.59
2023-03-25T03:39:57.426Z,8.60
2023-03-25T03:42:35.960Z,8.59
2023-03-25T03:45:10.663Z,8.60
2023-03-25T03:47:43.288Z,8.60
2023-03-25T03:50:14.400Z,8.61
2023-03-25T03:52:52.424Z,8.61
2023-03-25T03:55:31.433Z,8.61
2023-03-25T03:58:05.692Z,8.58
2023-03-25T04:00:41.944Z,8.56
2023-03-25T04:03:14.473Z,8.56
2023-03-25T04:05:57.167Z,8.54
2023-03-25T04:08:32.906Z,8.52
2023-03-25T04:11:05.490Z,8.52
2023-03-25T04:13:36.505Z,8.52
2023-03-25T04:16:25.106Z,8.52
2023-03-25T04:18:53.503Z,8.49
2023-03-25T04:21:21.269Z,8.48
2023-03-25T04:24:08.317Z,8.47
2023-03-25T04:26:37.789Z,8.44
2023-03-25T04:29:05.176Z,8.44
2023-03-25T04:31:31.737Z,8.42
2023-03-25T04:34:09.825Z,8.41
2023-03-25T04:36:38.120Z,8.38
2023-03-25T04:39:05.084Z,8.34
2023-03-25T04:41:32.192Z,8.29
2023-03-25T04:44:00.050Z,8.27
2023-03-25T04:46:26.873Z,8.25
2023-03-25T04:48:53.982Z,8.24
2023-03-25T04:51:20.491Z,8.20
2023-03-25T04:53:53.395Z,8.18
2023-03-25T04:56:19.956Z,8.21
2023-03-25T04:58:46.894Z,8.20
2023-03-25T05:01:31.595Z,8.20
2023-03-25T05:04:07.180Z,8.20
2023-03-25T05:06:35.770Z,8.21
2023-03-25T05:09:04.825Z,8.21
2023-03-25T05:11:33.339Z,8.24
2023-03-25T05:14:00.952Z,8.24
2023-03-25T05:16:27.542Z,8.23
2023-03-25T05:18:54.090Z,8.22
2023-03-25T05:21:21.723Z,8.20
2023-03-25T05:23:48.357Z,8.18
2023-03-25T05:26:15.162Z,8.18
2023-03-25T05:28:42.317Z,8.16
2023-03-25T05:31:08.945Z,8.15
2023-03-25T05:33:43.408Z,8.13
2023-03-25T05:36:16.396Z,8.13
2023-03-25T05:38:43.323Z,8.14
2023-03-25T05:41:16.556Z,8.15
2023-03-25T05:43:48.143Z,8.13
2023-03-25T05:46:15.414Z,8.12
2023-03-25T05:48:41.944Z,8.15
2023-03-25T05:51:16.513Z,8.20
2023-03-25T05:53:45.568Z,8.20
2023-03-25T05:56:12.048Z,8.25
2023-03-25T05:58:39.414Z,8.25
2023-03-25T06:01:06.291Z,8.22
2023-03-25T06:03:34.583Z,8.18
2023-03-25T06:06:01.782Z,8.20
2023-03-25T06:08:29.955Z,8.17
2023-03-25T06:11:00.761Z,8.16
2023-03-25T06:13:28.130Z,8.18
2023-03-25T06:16:00.180Z,8.22
2023-03-25T06:18:26.802Z,8.24
2023-03-25T06:20:57.985Z,8.28
2023-03-25T06:23:25.005Z,8.32
2023-03-25T06:25:56.056Z,8.34
2023-03-25T06:28:23.680Z,8.38
2023-03-25T06:30:50.506Z,8.43
2023-03-25T06:33:42.562Z,8.54
2023-03-25T06:36:08.111Z,8.68
2023-03-25T06:38:36.212Z,8.67
2023-03-25T06:41:02.756Z,8.65
2023-03-25T06:43:29.411Z,8.58
2023-03-25T06:45:57.002Z,8.46
2023-03-25T06:48:23.837Z,8.38
2023-03-25T06:50:50.377Z,8.27
2023-03-25T06:53:17.333Z,8.16
2023-03-25T06:55:44.973Z,8.11
2023-03-25T06:58:11.832Z,8.06
2023-03-25T07:00:38.684Z,8.04
2023-03-25T07:03:05.575Z,8.04
2023-03-25T07:05:42.711Z,8.02
2023-03-25T07:08:09.410Z,8.03
2023-03-25T07:10:36.039Z,8.05
2023-03-25T07:13:02.591Z,8.02
2023-03-25T07:15:29.424Z,7.97
2023-03-25T07:17:55.984Z,7.92
2023-03-25T07:20:22.538Z,7.86
2023-03-25T07:22:49.097Z,7.86
2023-03-25T07:25:15.859Z,7.83
2023-03-25T07:27:42.919Z,7.87
2023-03-25T07:30:10.326Z,7.92
2023-03-25T07:32:37.003Z,7.91
2023-03-25T07:35:10.884Z,7.96
2023-03-25T07:37:37.611Z,8.01
2023-03-25T07:40:04.615Z,8.08
2023-03-25T07:42:31.442Z,8.14
2023-03-25T07:44:58.286Z,8.24
2023-03-25T07:47:24.891Z,8.37
2023-03-25T07:49:51.524Z,8.42
2023-03-25T07:52:18.082Z,8.46
2023-03-25T07:54:52.212Z,8.48
2023-03-25T07:57:18.846Z,8.49
2023-03-25T07:59:45.388Z,8.53
2023-03-25T08:02:15.058Z,8.50
2023-03-25T08:04:41.875Z,8.48
2023-03-25T08:07:08.466Z,8.49
2023-03-25T08:09:35.381Z,8.56
2023-03-25T08:12:02.228Z,8.60
2023-03-25T08:14:31.264Z,8.60
2023-03-25T08:16:58.041Z,8.63
2023-03-25T08:19:24.814Z,8.63
2023-03-25T08:21:51.374Z,8.67
2023-03-25T08:24:17.995Z,8.70
2023-03-25T08:26:44.960Z,8.64
2023-03-25T08:29:11.707Z,8.60
2023-03-25T08:31:39.217Z,8.56
2023-03-25T08:34:06.865Z,8.61
2023-03-25T08:36:33.352Z,8.69
2023-03-25T08:39:00.060Z,8.80
2023-03-25T08:41:26.715Z,8.82
2023-03-25T08:43:53.297Z,8.78
2023-03-25T08:46:19.950Z,8.81
2023-03-25T08:48:47.908Z,8.86
2023-03-25T08:51:16.135Z,8.90
2023-03-25T08:53:42.753Z,9.02
2023-03-25T08:56:10.384Z,9.19
2023-03-25T08:58:36.978Z,9.29
2023-03-25T09:01:04.346Z,9.42
2023-03-25T09:03:31.373Z,9.62
2023-03-25T09:06:04.428Z,9.74
2023-03-25T09:08:33.050Z,9.80
2023-03-25T09:10:59.936Z,9.83
2023-03-25T09:13:26.535Z,9.87
2023-03-25T09:15:54.666Z,9.93
2023-03-25T09:18:21.777Z,9.95
2023-03-25T09:20:48.432Z,9.94
2023-03-25T09:23:16.092Z,9.98
2023-03-25T09:25:46.398Z,9.98
2023-03-25T09:28:13.066Z,9.89
2023-03-25T09:30:39.955Z,9.92
2023-03-25T09:33:07.379Z,9.97
2023-03-25T09:35:34.123Z,10.05
2023-03-25T09:38:01.020Z,10.17
2023-03-25T09:40:27.818Z,10.39
2023-03-25T09:43:05.976Z,10.59
2023-03-25T09:45:49.690Z,10.60
2023-03-25T09:48:25.943Z,10.45
2023-03-25T09:50:53.567Z,10.32
2023-03-25T09:53:22.797Z,10.28
2023-03-25T09:55:51.047Z,10.31
2023-03-25T09:58:28.059Z,10.28
2023-03-25T10:01:04.737Z,10.26
2023-03-25T10:04:04.556Z,10.24
2023-03-25T10:06:33.524Z,10.27
2023-03-25T10:09:18.342Z,10.27
2023-03-25T10:12:03.420Z,10.32
2023-03-25T10:14:51.522Z,10.36
2023-03-25T10:17:26.042Z,10.37
2023-03-25T10:20:14.651Z,10.38
2023-03-25T10:23:02.362Z,10.37
2023-03-25T10:25:33.125Z,10.41
2023-03-25T10:28:00.970Z,10.42
2023-03-25T10:30:33.079Z,10.43
2023-03-25T10:33:04.321Z,10.42
2023-03-25T10:35:45.942Z,10.46
2023-03-25T10:38:21.440Z,10.55
2023-03-25T10:40:51.709Z,10.57
2023-03-25T10:43:32.188Z,10.69
2023-03-25T10:46:37.759Z,10.72
2023-03-25T10:49:04.186Z,10.78
2023-03-25T10:51:33.735Z,10.78
2023-03-25T10:54:01.035Z,10.83
2023-03-25T10:56:32.787Z,10.82
2023-03-25T10:59:04.831Z,10.80
2023-03-25T11:01:40.172Z,10.66
2023-03-25T11:04:11.382Z,10.56
2023-03-25T11:06:40.105Z,10.55
2023-03-25T11:09:23.636Z,10.56
2023-03-25T11:11:50.263Z,10.57
2023-03-25T11:14:21.485Z,10.65
2023-03-25T11:17:00.956Z,10.69
2023-03-25T11:19:31.279Z,10.68
2023-03-25T11:22:07.581Z,10.63
2023-03-25T11:24:39.970Z,10.63
2023-03-25T11:27:07.932Z,10.87
2023-03-25T11:29:37.295Z,10.97
2023-03-25T11:32:16.875Z,10.84
2023-03-25T11:34:48.368Z,10.76
2023-03-25T11:37:20.321Z,10.67
2023-03-25T11:39:55.394Z,10.64
2023-03-25T11:42:42.947Z,10.76
2023-03-25T11:45:39.013Z,10.76
2023-03-25T11:48:23.654Z,10.83
2023-03-25T11:50:56.273Z,10.94
2023-03-25T11:53:27.286Z,11.10
2023-03-25T11:56:07.904Z,11.11
2023-03-25T11:58:37.249Z,10.93
2023-03-25T12:01:17.700Z,10.88
2023-03-25T12:03:44.719Z,11.02
2023-03-25T12:06:11.558Z,11.12
2023-03-25T12:09:07.166Z,11.11
2023-03-25T12:11:46.876Z,11.13
2023-03-25T12:14:35.062Z,11.22
2023-03-25T12:17:40.845Z,11.33
2023-03-25T12:20:43.241Z,11.38
2023-03-25T12:23:34.981Z,11.37
2023-03-25T12:26:11.828Z,11.67
2023-03-25T12:28:45.022Z,11.91
2023-03-25T12:31:31.578Z,12.10
2023-03-25T12:34:08.299Z,12.24
2023-03-25T12:36:34.781Z,12.44
2023-03-25T12:39:39.495Z,12.38
2023-03-25T12:42:18.072Z,12.22
2023-03-25T12:45:15.613Z,12.24
2023-03-25T12:47:53.116Z,12.48
2023-03-25T12:50:33.732Z,12.45
2023-03-25T12:53:23.627Z,12.31
2023-03-25T12:56:14.498Z,12.58
2023-03-25T12:59:05.796Z,12.80
2023-03-25T13:01:41.690Z,12.95
2023-03-25T13:04:11.387Z,13.08
2023-03-25T13:06:48.629Z,13.06
2023-03-25T13:09:26.958Z,13.15
2023-03-25T13:12:13.899Z,13.37
2023-03-25T13:14:55.358Z,13.54
2023-03-25T13:17:28.838Z,13.73
2023-03-25T13:20:01.115Z,13.58
2023-03-25T13:22:36.496Z,13.63
2023-03-25T13:25:19.652Z,13.50
2023-03-25T13:27:47.778Z,13.54
2023-03-25T13:30:22.479Z,13.44
2023-03-25T13:32:53.597Z,13.19
2023-03-25T13:35:28.349Z,13.29
2023-03-25T13:38:01.095Z,13.38
2023-03-25T13:40:44.665Z,13.15
2023-03-25T13:43:32.097Z,13.25
2023-03-25T13:46:08.899Z,13.18
2023-03-25T13:48:58.690Z,13.11
2023-03-25T13:51:25.458Z,13.15
2023-03-25T13:53:58.914Z,13.07
2023-03-25T13:56:58.312Z,13.55
2023-03-25T14:00:05.960Z,13.69
2023-03-25T14:02:50.755Z,13.42
2023-03-25T14:05:32.273Z,13.05
2023-03-25T14:08:33.081Z,12.66
2023-03-25T14:11:35.395Z,12.02
2023-03-25T14:14:11.968Z,11.49
2023-03-25T14:16:46.441Z,10.90
2023-03-25T14:19:22.300Z,10.61
2023-03-25T14:21:51.808Z,10.36
2023-03-25T14:24:32.787Z,10.12
2023-03-25T14:27:07.410Z,10.32
2023-03-25T14:29:41.236Z,10.82
2023-03-25T14:32:16.920Z,11.09
2023-03-25T14:34:47.246Z,11.31
2023-03-25T14:37:26.067Z,11.62
2023-03-25T14:39:55.281Z,11.87
2023-03-25T14:42:28.792Z,11.95
2023-03-25T14:45:33.551Z,12.35
2023-03-25T14:48:00.749Z,12.50
2023-03-25T14:50:30.056Z,12.42
2023-03-25T14:53:12.678Z,12.25
2023-03-25T14:55:47.386Z,12.22
2023-03-25T14:58:23.480Z,12.43
2023-03-25T15:01:04.567Z,12.15
2023-03-25T15:03:37.310Z,11.95
2023-03-25T15:06:06.731Z,11.81
2023-03-25T15:08:40.357Z,11.69
2023-03-25T15:11:09.193Z,11.61
2023-03-25T15:13:39.945Z,11.54
2023-03-25T15:16:37.243Z,11.50
2023-03-25T15:19:07.756Z,11.47
2023-03-25T15:21:56.902Z,11.46
2023-03-25T15:24:27.149Z,11.44
2023-03-25T15:26:56.170Z,10.40
2023-03-25T15:30:00.203Z,8.75
2023-03-25T15:32:38.755Z,7.99
2023-03-25T15:35:31.483Z,7.64
2023-03-25T15:38:42.288Z,7.49
2023-03-25T15:41:36.260Z,7.47
2023-03-25T15:44:22.654Z,7.47
2023-03-25T15:47:04.120Z,7.41
2023-03-25T15:49:33.189Z,7.31
2023-03-25T15:52:24.016Z,7.29
2023-03-25T15:54:54.926Z,7.30
2023-03-25T15:57:33.764Z,7.37
2023-03-25T16:00:13.422Z,7.42
2023-03-25T16:02:49.428Z,7.43
2023-03-25T16:05:22.109Z,7.45
2023-03-25T16:07:49.525Z,7.46
2023-03-25T16:10:21.953Z,7.50
2023-03-25T16:12:50.471Z,7.53
2023-03-25T16:15:26.923Z,7.57
2023-03-25T16:17:54.492Z,7.63
2023-03-25T16:20:26.511Z,7.68
2023-03-25T16:22:55.772Z,7.75
2023-03-25T16:25:50.704Z,7.78
2023-03-25T16:28:36.267Z,7.81
2023-03-25T16:31:03.060Z,7.81
2023-03-25T16:33:31.805Z,7.78
2023-03-25T16:36:02.724Z,7.78
2023-03-25T16:38:30.461Z,7.68
2023-03-25T16:41:14.760Z,7.63
2023-03-25T16:43:42.024Z,7.67
2023-03-25T16:46:15.025Z,7.77
2023-03-25T16:48:50.078Z,7.82
2023-03-25T16:51:28.799Z,7.77
2023-03-25T16:53:59.477Z,7.77
2023-03-25T16:56:31.084Z,7.77
2023-03-25T16:59:02.337Z,7.78
2023-03-25T17:01:33.484Z,7.82
2023-03-25T17:04:18.935Z,7.86
2023-03-25T17:06:52.997Z,7.86
2023-03-25T17:09:22.771Z,7.88
2023-03-25T17:11:54.687Z,7.93
2023-03-25T17:14:30.672Z,7.87
2023-03-25T17:16:57.720Z,7.85
2023-03-25T17:19:27.117Z,7.83
2023-03-25T17:22:04.820Z,7.82
2023-03-25T17:24:41.770Z,7.80
2023-03-25T17:27:26.661Z,7.79
2023-03-25T17:29:57.622Z,7.81
2023-03-25T17:32:24.168Z,7.82
2023-03-25T17:35:16.788Z,7.83
2023-03-25T17:37:46.525Z,7.87
2023-03-25T17:40:21.267Z,7.90
2023-03-25T17:42:47.814Z,7.94
2023-03-25T17:45:17.218Z,7.96
2023-03-25T17:47:43.771Z,7.98
2023-03-25T17:50:17.959Z,8.01
2023-03-25T17:52:44.913Z,8.04
2023-03-25T17:55:19.676Z,8.08
2023-03-25T17:57:46.606Z,8.08
2023-03-25T18:00:19.521Z,8.08
2023-03-25T18:02:47.002Z,8.05
2023-03-25T18:05:14.118Z,8.04
2023-03-25T18:07:40.765Z,8.01
2023-03-25T18:10:26.194Z,8.02
2023-03-25T18:12:56.356Z,8.02
2023-03-25T18:15:28.486Z,8.03
2023-03-25T18:17:56.527Z,8.03
2023-03-25T18:20:28.655Z,8.02
2023-03-25T18:22:56.091Z,8.00
2023-03-25T18:25:26.678Z,7.99
2023-03-25T18:27:55.536Z,8.00
2023-03-25T18:30:46.693Z,8.00
2023-03-25T18:33:15.180Z,7.97
2023-03-25T18:35:42.856Z,7.98
2023-03-25T18:38:26.934Z,7.96
2023-03-25T18:40:55.641Z,7.92
2023-03-25T18:43:22.600Z,7.89
2023-03-25T18:45:52.437Z,7.86
2023-03-25T18:48:21.423Z,7.81
2023-03-25T18:51:06.649Z,7.78
2023-03-25T18:53:33.644Z,7.74
2023-03-25T18:56:04.894Z,7.69
2023-03-25T18:58:34.233Z,7.66
2023-03-25T19:01:02.233Z,7.61
2023-03-25T19:03:38.669Z,7.56
2023-03-25T19:06:08.718Z,7.56
2023-03-25T19:08:36.827Z,7.50
2023-03-25T19:11:19.212Z,7.48
2023-03-25T19:13:48.234Z,7.43
2023-03-25T19:16:19.859Z,7.40
2023-03-25T19:18:47.482Z,7.37
2023-03-25T19:21:19.008Z,7.35
2023-03-25T19:23:46.352Z,7.34
2023-03-25T19:26:13.418Z,7.33
2023-03-25T19:28:41.031Z,7.31
2023-03-25T19:31:07.904Z,7.31
2023-03-25T19:33:34.836Z,7.31
2023-03-25T19:36:04.519Z,7.31
2023-03-25T19:38:32.778Z,7.30
2023-03-25T19:41:09.416Z,7.29
2023-03-25T19:43:36.111Z,7.31
2023-03-25T19:46:08.057Z,7.32
2023-03-25T19:48:35.617Z,7.30
2023-03-25T19:51:02.234Z,7.30
2023-03-25T19:53:29.505Z,7.29
2023-03-25T19:56:05.973Z,7.27
2023-03-25T19:58:34.712Z,7.26
2023-03-25T20:01:01.648Z,7.25
2023-03-25T20:03:31.336Z,7.25
2023-03-25T20:06:02.289Z,7.26
2023-03-25T20:08:30.450Z,7.27
2023-03-25T20:10:57.282Z,7.28
2023-03-25T20:13:24.254Z,7.27
2023-03-25T20:15:53.262Z,7.28
2023-03-25T20:18:20.044Z,7.27
2023-03-25T20:20:46.725Z,7.25
2023-03-25T20:23:13.366Z,7.24
2023-03-25T20:25:41.731Z,7.22
2023-03-25T20:28:08.334Z,7.21
2023-03-25T20:30:35.780Z,7.18
2023-03-25T20:33:03.329Z,7.14
2023-03-25T20:35:32.294Z,7.11
2023-03-25T20:37:59.236Z,7.07
2023-03-25T20:40:37.521Z,7.05
2023-03-25T20:43:08.966Z,6.99
2023-03-25T20:45:37.666Z,6.96
2023-03-25T20:48:05.745Z,6.94
2023-03-25T20:50:32.452Z,6.91
2023-03-25T20:52:58.946Z,6.91
2023-03-25T20:55:26.529Z,6.90
2023-03-25T20:57:55.938Z,6.88
2023-03-25T21:00:22.360Z,6.83
2023-03-25T21:02:50.437Z,6.82
2023-03-25T21:05:18.241Z,6.81
2023-03-25T21:07:44.825Z,6.82
2023-03-25T21:10:11.663Z,6.82
2023-03-25T21:12:44.028Z,6.82
2023-03-25T21:15:15.551Z,6.83
2023-03-25T21:17:43.207Z,6.84
2023-03-25T21:20:10.800Z,6.87
2023-03-25T21:22:42.854Z,6.91
2023-03-25T21:25:14.592Z,6.92
2023-03-25T21:27:42.399Z,6.93
2023-03-25T21:30:10.081Z,6.94
2023-03-25T21:32:40.428Z,6.94
2023-03-25T21:35:10.021Z,6.96
2023-03-25T21:37:40.458Z,6.96
2023-03-25T21:40:11.017Z,6.97
2023-03-25T21:42:39.024Z,6.97
2023-03-25T21:45:16.889Z,6.98
2023-03-25T21:47:45.400Z,6.99
2023-03-25T21:50:13.503Z,6.98
2023-03-25T21:52:46.965Z,6.99
2023-03-25T21:55:16.550Z,6.98
2023-03-25T21:57:45.111Z,6.99
2023-03-25T22:00:16.164Z,6.97
2023-03-25T22:02:43.520Z,6.96
2023-03-25T22:05:16.888Z,6.96
2023-03-25T22:07:43.956Z,6.98
2023-03-25T22:10:11.369Z,6.99
2023-03-25T22:12:37.959Z,6.98
2023-03-25T22:15:06.359Z,6.99
2023-03-25T22:17:32.935Z,6.96
2023-03-25T22:19:59.464Z,6.93
2023-03-25T22:22:26.127Z,6.91
2023-03-25T22:24:52.935Z,6.91
2023-03-25T22:27:19.478Z,6.87
2023-03-25T22:29:46.083Z,6.88
2023-03-25T22:32:12.589Z,6.89
2023-03-25T22:34:39.551Z,6.90
2023-03-25T22:37:06.541Z,6.90
2023-03-25T22:39:33.367Z,6.92
2023-03-25T22:41:59.781Z,6.95
2023-03-25T22:44:26.588Z,6.97
2023-03-25T22:46:53.199Z,6.99
2023-03-25T22:49:20.125Z,7.00
2023-03-25T22:51:46.711Z,7.01
2023-03-25T22:54:13.485Z,7.05
2023-03-25T22:56:40.283Z,7.08
2023-03-25T22:59:07.482Z,7.10
2023-03-25T23:01:36.004Z,7.09
2023-03-25T23:04:03.931Z,7.09
2023-03-25T23:06:33.000Z,7.10
2023-03-25T23:08:59.506Z,7.10
2023-03-25T23:11:28.963Z,7.12
2023-03-25T23:13:58.368Z,7.12
2023-03-25T23:16:27.306Z,7.15
2023-03-25T23:18:54.064Z,7.11
2023-03-25T23:21:24.325Z,7.11
2023-03-25T23:23:54.009Z,7.09
2023-03-25T23:26:24.856Z,7.13
2023-03-25T23:28:52.963Z,7.15
2023-03-25T23:31:28.514Z,7.13
2023-03-25T23:33:57.713Z,7.15
2023-03-25T23:36:26.042Z,7.15
2023-03-25T23:38:53.685Z,7.17
2023-03-25T23:41:25.790Z,7.20
2023-03-25T23:43:54.274Z,7.21
2023-03-25T23:46:22.249Z,7.22
2023-03-25T23:48:49.130Z,7.22
2023-03-25T23:51:18.098Z,7.20
2023-03-25T23:53:47.231Z,7.22
2023-03-25T23:56:16.420Z,7.24
2023-03-25T23:58:43.623Z,7.27
